Date,TemperatureHighF,TemperatureAvgF,TemperatureLowF,DewpointHighF,DewpointAvgF,DewpointLowF,HumidityHigh,HumidityAvg,HumidityLow,PressureMaxIn,PressureMinIn,WindSpeedMaxMPH,WindSpeedAvgMPH,GustSpeedMaxMPH,PrecipitationSumIn
2013-1-1,56.5,42.5,30.4,31.9,27.2,23.3,79,58,30,27.57,27.43,7,1,7,0.00
2013-1-2,67.5,48.5,32.8,29.1,25.4,22.5,70,44,22,27.46,27.32,12,2,12,0.00
2013-1-3,65.5,49.6,38.2,30.9,26.2,21.4,55,41,25,27.51,27.35,12,3,12,0.00
2013-1-4,63.4,48.1,38.7,31.5,27.5,24.1,61,46,28,27.61,27.51,14,4,14,0.00
2013-1-5,67.3,50.3,36.2,34.8,25.0,15.0,66,41,17,27.65,27.53,9,2,9,0.00
2013-1-6,66.8,54.3,43.2,25.5,19.7,16.3,43,27,17,27.54,27.30,12,4,12,0.00
2013-1-7,59.6,45.8,34.2,31.2,25.0,21.3,62,45,29,27.31,27.18,8,1,8,0.00
2013-1-8,64.3,47.7,34.6,33.0,25.6,21.2,68,45,25,27.46,27.26,5,1,5,0.00
2013-1-9,72.7,54.8,37.8,28.4,19.5,14.3,51,29,12,27.55,27.39,12,3,12,0.00
2013-1-10,68.6,56.3,42.1,35.6,22.3,16.5,49,28,18,27.41,27.17,10,3,10,0.00
2013-1-11,53.8,40.8,32.6,35.7,24.3,11.0,90,56,28,27.43,27.25,11,2,11,0.16
2013-1-12,49.7,36.7,27.0,18.7,13.3,8.3,57,40,22,27.44,27.31,7,1,7,0.00
2013-1-13,50.4,36.0,24.8,17.4,10.4,2.1,55,37,15,27.45,27.33,5,1,5,0.00
2013-1-14,48.6,33.4,23.8,14.0,7.4,-0.2,54,35,20,27.54,27.38,8,2,8,0.00
2013-1-15,40.7,26.7,19.6,4.7,3.0,1.2,48,37,20,27.66,27.53,2,0,2,0.00
2013-1-16,64.1,44.6,26.5,14.2,8.2,2.4,39,24,13,27.67,27.53,9,1,9,0.00
2013-1-17,71.5,55.2,42.8,17.4,13.2,9.0,27,20,12,27.59,27.47,14,4,14,0.00
2013-1-18,59.8,50.6,47.7,21.9,17.7,15.5,30,27,21,27.56,27.48,8,2,8,0.00
2013-1-19,76.3,57.0,43.6,27.2,19.4,14.7,35,25,11,27.57,27.46,7,2,7,0.00
2013-1-20,78.8,60.0,47.5,37.1,25.9,19.9,39,28,17,27.52,27.38,6,1,6,0.00
2013-1-21,84.2,62.3,46.6,37.4,30.5,25.9,48,33,17,27.47,27.36,6,1,6,0.00
2013-1-22,85.0,63.8,48.8,37.8,31.0,25.8,49,32,13,27.53,27.43,7,2,7,0.00
2013-1-23,83.5,65.2,50.8,33.5,29.6,25.2,41,28,16,27.58,27.46,8,2,8,0.00
2013-1-24,67.5,60.3,57.8,49.2,39.2,29.7,70,48,33,27.61,27.53,4,1,4,0.03
2013-1-25,79.6,65.5,53.5,47.9,45.3,41.9,69,50,30,27.55,27.36,5,1,5,0.00
2013-1-26,69.5,61.2,55.1,58.0,50.5,45.6,90,70,46,27.38,27.29,10,1,10,0.77
2013-1-27,68.9,58.6,49.7,54.5,47.8,44.5,88,69,45,27.39,27.30,6,1,6,0.00
2013-1-28,60.1,50.9,40.5,48.3,40.9,30.3,83,69,44,27.37,27.28,15,2,15,0.03
2013-1-29,52.2,43.8,36.5,34.7,26.1,18.3,81,53,27,27.53,27.36,10,2,10,0.00
2013-1-30,62.8,45.7,32.8,34.5,23.7,16.4,72,46,21,27.66,27.53,4,1,4,0.00
2013-1-31,65.0,48.3,33.5,32.6,27.5,22.9,67,47,25,27.59,27.44,8,1,8,0.00
2013-2-1,72.9,54.8,40.0,33.9,28.2,24.2,57,39,18,27.56,27.47,6,1,6,0.00
2013-2-2,77.8,57.4,42.5,35.1,27.9,20.3,52,36,13,27.59,27.46,6,1,6,0.00
2013-2-3,73.1,60.4,53.1,38.4,33.2,26.1,51,37,24,27.50,27.33,6,1,6,0.00
2013-2-4,73.1,58.6,47.7,40.8,37.2,34.6,61,46,29,27.41,27.30,5,1,5,0.00
2013-2-5,76.5,58.8,43.6,44.0,38.7,34.1,71,50,26,27.39,27.28,6,1,6,0.00
2013-2-6,74.9,58.9,48.6,44.5,37.5,33.8,64,47,27,27.40,27.28,7,2,7,0.00
2013-2-7,74.7,58.3,45.0,43.7,33.2,25.7,67,42,18,27.47,27.33,7,1,7,0.00
2013-2-8,69.1,57.4,46.8,34.2,25.2,14.5,47,32,13,27.33,27.15,11,3,11,0.00
2013-2-9,54.0,45.2,36.0,38.4,28.9,22.1,91,56,33,27.38,27.17,9,2,9,0.21
2013-2-10,61.9,45.4,32.8,34.0,25.0,20.4,71,48,24,27.38,27.28,7,1,7,0.00
2013-2-11,51.8,38.9,34.0,35.5,28.2,21.1,92,68,39,27.49,27.30,8,2,8,0.36
2013-2-12,55.6,40.9,32.0,40.3,31.8,26.5,92,73,38,27.60,27.49,6,1,6,0.00
2013-2-13,55.4,39.6,30.4,28.4,26.3,23.7,78,61,31,27.52,27.43,8,1,8,0.00
2013-2-14,67.0,49.8,34.2,33.6,27.3,20.5,71,46,18,27.50,27.38,6,1,6,0.00
2013-2-15,73.8,56.2,42.1,35.7,27.1,19.2,59,37,16,27.59,27.47,6,1,6,0.00
2013-2-16,79.4,60.3,47.2,21.4,16.8,12.7,32,20,8,27.60,27.37,13,4,13,0.00
2013-2-17,74.5,59.4,45.7,20.3,15.5,10.9,29,19,7,27.37,27.22,8,2,8,0.00
2013-2-18,74.9,57.3,40.5,23.8,19.1,14.1,43,25,11,27.42,27.28,7,1,7,0.00
2013-2-19,61.7,49.1,45.7,18.3,17.3,14.0,33,29,16,27.28,27.09,3,2,3,0.00
2013-2-20,34.4,33.5,32.9,31.5,30.8,30.2,92,90,87,27.30,27.19,3,0,3,0.09
2013-2-21,55.4,43.3,32.9,42.1,33.5,30.5,92,71,45,27.39,27.28,6,1,6,0.30
2013-2-22,56.9,46.3,36.5,42.0,33.2,26.6,84,62,40,27.48,27.33,8,1,8,0.00
2013-2-23,69.5,50.0,34.9,37.9,28.9,23.9,75,49,21,27.48,27.20,7,1,7,0.00
2013-2-24,52.6,44.9,37.1,30.7,19.5,5.7,66,40,18,27.43,27.16,13,3,13,0.00
2013-2-25,60.8,44.6,31.9,23.8,18.1,14.1,53,37,20,27.54,27.38,6,1,6,0.00
2013-2-26,67.5,48.1,32.8,26.6,19.2,10.4,59,35,15,27.43,27.31,8,2,8,0.00
2013-2-27,55.8,43.0,36.4,19.7,15.5,9.0,48,34,16,27.54,27.42,5,1,5,0.00
2013-2-28,69.8,51.3,32.6,23.2,14.7,10.7,45,26,11,27.64,27.53,7,1,7,0.00
2013-3-1,78.8,55.6,36.7,25.0,18.6,12.2,42,26,10,27.67,27.54,5,1,5,0.00
2013-3-2,87.7,64.2,44.8,29.3,23.8,19.1,40,25,8,27.64,27.46,8,1,8,0.00
2013-3-3,82.4,64.6,47.5,31.1,23.6,15.4,39,24,10,27.48,27.30,8,2,8,0.00
2013-3-4,74.5,64.8,52.6,40.4,26.2,15.9,43,24,16,27.44,27.25,12,2,12,0.00
2013-3-5,85.5,64.1,47.3,32.5,28.5,23.5,48,29,15,27.46,27.35,8,2,12,0.00
2013-3-6,85.9,67.3,54.4,33.0,30.0,26.8,42,27,13,27.41,27.26,5,2,8,0.00
2013-3-7,81.2,64.5,50.8,31.8,26.0,17.3,43,26,10,27.34,27.25,8,2,10,0.00
2013-3-8,67.5,58.2,46.4,45.6,35.8,26.9,59,44,27,27.33,27.15,12,4,15,0.01
2013-3-9,54.4,48.4,42.5,39.2,34.9,30.4,74,60,48,27.43,27.32,6,1,8,0.01
2013-3-10,65.5,53.5,41.4,39.0,35.0,27.1,79,52,24,27.50,27.40,6,2,11,0.00
2013-3-11,76.0,57.0,40.9,38.5,29.9,21.7,64,40,15,27.51,27.37,5,1,6,0.00
2013-3-12,88.2,63.2,44.8,40.4,30.4,24.6,50,33,12,27.46,27.35,4,2,6,0.00
2013-3-13,96.1,70.5,51.3,34.5,29.7,23.8,47,26,7,27.50,27.38,6,2,6,0.00
2013-3-14,101.0,74.0,54.7,34.6,27.1,22.1,32,19,5,27.50,27.37,5,2,6,0.00
2013-3-15,103.0,73.9,55.1,36.0,25.4,20.4,29,17,5,27.42,27.28,8,2,10,0.00
2013-3-16,89.6,72.2,56.9,26.6,21.4,11.5,26,15,5,27.32,27.13,9,2,10,0.00
2013-3-17,85.0,69.0,56.2,25.7,20.2,13.5,23,16,10,27.31,27.20,10,3,11,0.00
2013-3-18,85.1,68.4,54.0,33.8,25.7,19.1,38,22,10,27.38,27.27,5,2,10,0.00
2013-3-19,80.8,67.4,55.6,36.9,28.3,23.0,36,24,15,27.41,27.30,6,2,8,0.00
2013-3-20,83.0,68.4,54.0,31.8,28.0,24.6,37,24,13,27.42,27.25,8,2,9,0.00
2013-3-21,81.9,68.4,56.9,34.9,30.8,26.4,33,25,17,27.25,27.12,7,1,7,0.00
2013-3-22,81.4,69.7,58.3,33.9,29.3,20.5,33,24,11,27.20,27.08,11,2,11,0.00
2013-3-23,79.2,63.5,51.5,32.4,21.8,6.6,41,23,8,27.35,27.20,8,2,13,0.00
2013-3-24,79.6,61.7,46.1,18.2,10.8,5.5,23,13,4,27.38,27.24,8,2,10,0.00
2013-3-25,85.1,65.0,47.2,22.5,14.4,5.7,21,14,8,27.37,27.27,5,1,8,0.00
2013-3-26,89.5,70.4,54.0,25.8,18.8,12.6,24,14,5,27.35,27.21,6,2,8,0.00
2013-3-27,86.4,70.4,55.8,25.5,20.3,14.6,22,16,8,27.38,27.26,9,2,9,0.00
2013-3-28,86.2,70.5,55.8,34.1,23.7,17.6,30,18,8,27.43,27.33,7,2,10,0.00
2013-3-29,88.0,71.6,56.5,34.5,23.7,13.8,31,18,7,27.46,27.35,6,1,7,0.00
2013-3-30,85.3,71.4,58.9,30.9,22.0,14.8,25,16,8,27.43,27.31,6,2,8,0.00
2013-3-31,87.1,69.8,52.9,29.9,25.0,18.9,34,21,10,27.41,27.27,5,2,9,0.00
2013-4-1,84.2,68.5,53.8,38.1,29.5,19.8,39,25,15,27.39,27.25,6,2,9,0.00
2013-4-2,79.0,65.2,50.4,25.7,21.7,18.2,32,20,11,27.35,27.24,8,2,9,0.00
2013-4-3,83.9,67.2,51.5,31.0,24.1,20.0,31,21,10,27.40,27.32,5,2,7,0.00
2013-4-4,92.3,72.3,54.0,30.4,24.3,19.3,32,18,6,27.44,27.29,7,2,8,0.00
2013-4-5,88.4,73.0,59.4,32.7,25.9,18.6,24,18,11,27.36,27.23,6,2,10,0.00
2013-4-6,86.9,71.9,56.2,36.1,31.1,26.5,38,24,12,27.36,27.21,7,2,10,0.00
2013-4-7,87.1,71.9,56.7,36.4,29.9,22.0,40,24,10,27.28,27.14,6,2,8,0.00
2013-4-8,80.6,69.2,47.2,43.7,33.9,25.1,87,29,16,27.15,26.89,15,5,15,0.05
2013-4-9,67.0,56.2,46.3,43.8,31.9,21.4,88,46,21,27.26,27.02,10,3,11,0.05
2013-4-10,69.1,57.3,44.8,31.1,27.2,22.1,47,33,18,27.36,27.25,8,2,9,0.00
2013-4-11,81.4,62.9,46.4,32.5,26.4,20.1,47,28,12,27.35,27.15,6,2,8,0.00
2013-4-12,83.3,67.0,55.4,28.1,24.0,20.5,28,21,11,27.21,27.13,8,2,10,0.00
2013-4-13,86.8,69.6,52.4,30.1,24.4,20.2,32,20,9,27.25,27.11,6,2,7,0.00
2013-4-14,84.8,69.5,61.0,37.5,30.5,23.2,34,25,11,27.20,27.08,7,2,11,0.00
2013-4-15,86.0,71.6,60.8,39.6,32.4,25.8,37,25,12,27.20,27.09,12,4,14,0.00
2013-4-16,84.2,72.1,59.6,39.7,31.6,23.8,39,24,13,27.21,27.09,8,4,13,0.00
2013-4-17,69.3,60.8,52.7,41.0,24.8,9.7,55,28,12,27.37,27.16,10,3,12,0.00
2013-4-18,73.1,57.0,42.7,17.1,11.5,7.5,27,17,8,27.45,27.35,7,2,7,0.00
2013-4-19,88.9,76.3,60.5,25.4,16.0,6.1,12,6,2,27.49,27.31,9,3,11,0.00
2013-4-22,94.9,81.5,61.6,29.9,21.8,13.0,19,9,4,27.36,27.17,8,2,8,0.00
2013-4-23,91.4,75.0,59.2,27.4,20.7,12.0,19,13,6,27.28,27.18,8,2,9,0.00
2013-4-24,88.2,72.0,59.0,29.9,22.9,16.9,23,17,8,27.32,27.23,8,2,8,0.00
2013-4-25,84.2,73.9,61.4,29.4,25.3,20.3,24,17,8,27.41,27.25,12,3,12,0.00
2013-4-26,92.0,70.1,52.9,30.3,24.3,20.5,32,19,6,27.47,27.37,6,2,7,0.00
2013-4-27,92.2,72.2,56.0,27.9,23.3,19.1,27,17,5,27.45,27.28,5,1,7,0.00
2013-4-28,101.9,77.9,58.0,35.2,22.8,13.1,22,12,3,27.31,27.15,5,2,8,0.00
2013-4-29,100.4,80.0,60.5,34.2,21.4,11.4,17,10,3,27.24,27.08,6,2,8,0.00
2013-4-30,96.3,80.2,64.3,31.0,23.0,17.7,18,11,5,27.22,27.11,8,2,9,0.00
2013-5-1,94.1,76.5,59.8,29.3,22.9,18.8,23,14,5,27.38,27.21,8,2,9,0.00
2013-5-2,105.7,78.6,58.7,38.1,23.7,15.7,23,13,5,27.48,27.35,14,2,14,0.00
2013-5-3,97.6,74.8,60.3,31.9,21.1,13.4,22,13,5,27.44,27.19,13,5,17,0.00
2013-5-4,93.4,78.3,63.4,28.8,21.0,11.3,16,11,5,27.23,27.10,11,3,11,0.00
2013-5-5,89.3,78.0,62.1,45.7,28.6,19.5,55,18,8,27.33,27.16,11,3,11,0.02
2013-5-6,87.1,71.6,59.4,47.8,39.5,30.3,58,35,15,27.36,27.26,9,2,9,0.01
2013-5-7,86.2,70.6,56.5,43.4,33.4,21.2,43,28,10,27.37,27.24,11,2,11,0.00
2013-5-8,85.3,69.3,56.2,42.1,37.4,31.5,50,33,17,27.40,27.28,9,2,9,0.00
2013-5-9,88.9,71.2,56.5,41.7,33.8,23.0,49,29,12,27.37,27.25,7,1,7,0.00
2013-5-10,92.7,72.7,58.1,39.3,34.3,26.2,38,27,10,27.43,27.29,12,2,12,0.00
2013-5-11,99.4,77.4,61.7,39.3,34.5,28.6,36,23,11,27.47,27.37,12,2,12,0.00
2013-5-12,101.7,80.1,64.4,39.1,32.7,26.6,33,20,8,27.52,27.33,14,3,14,0.00
2013-5-13,106.9,83.5,67.7,38.7,28.8,16.4,23,14,5,27.45,27.29,14,2,14,0.00
2013-5-14,101.7,84.0,70.6,36.3,30.9,17.6,26,16,7,27.38,27.22,9,2,9,0.00
2013-5-15,99.4,84.1,69.3,36.9,32.4,28.4,26,17,8,27.39,27.23,9,2,10,0.00
2013-5-16,100.6,82.6,67.3,34.3,28.9,23.0,23,14,6,27.33,27.17,10,2,10,0.00
2013-5-17,96.8,80.3,65.5,33.7,28.4,21.1,28,16,7,27.30,27.20,9,2,9,0.00
2013-5-18,94.1,78.4,63.4,38.8,28.2,19.9,29,17,7,27.33,27.22,10,2,10,0.00
2013-5-19,95.0,77.9,63.2,39.1,34.1,24.8,38,23,8,27.32,27.17,8,2,8,0.00
2013-5-20,94.7,78.6,64.3,38.4,30.0,19.8,32,19,8,27.29,27.19,13,2,13,0.00
2013-5-21,92.3,74.3,60.8,28.0,21.2,14.0,21,14,5,27.31,27.17,6,1,6,0.00
2013-5-22,101.9,83.1,65.9,35.2,25.4,14.8,19,12,6,27.23,27.08,11,2,11,0.00
2013-5-23,100.3,82.4,64.6,34.2,29.2,21.8,26,15,5,27.26,27.16,9,2,9,0.00
2013-5-24,101.2,82.2,66.4,43.3,31.6,19.6,35,16,3,27.33,27.22,9,2,9,0.00
2013-5-25,100.1,81.6,65.3,36.7,29.5,20.9,26,15,3,27.34,27.24,10,2,10,0.00
2013-5-26,100.1,80.6,62.6,33.9,25.2,12.0,23,12,2,27.36,27.25,10,2,10,0.00
2013-5-27,104.2,80.9,62.6,37.0,22.8,11.9,17,10,1,27.30,27.12,8,1,8,0.00
2013-5-28,97.0,79.7,63.0,33.0,25.6,18.2,21,13,5,27.19,27.03,10,2,10,0.00
2013-5-29,99.7,80.7,63.9,49.1,33.5,28.2,35,20,8,27.17,27.07,7,2,7,0.00
2013-5-30,102.6,84.0,70.2,52.9,43.2,30.5,48,28,10,27.25,27.14,9,2,9,0.00
2013-5-31,103.9,84.9,71.1,56.0,46.3,35.1,51,30,8,27.28,27.17,10,2,10,0.00
2013-6-1,113.2,88.8,68.6,43.8,37.8,31.9,30,18,6,27.25,27.11,6,1,6,0.00
2013-6-2,109.3,90.5,73.6,42.8,37.5,27.1,27,17,7,27.22,27.09,10,2,10,0.00
2013-6-3,106.2,88.1,71.3,38.4,33.1,27.1,25,14,4,27.26,27.15,8,2,8,0.00
2013-6-4,105.3,87.4,72.2,43.3,35.2,28.4,26,17,6,27.28,27.17,9,2,9,0.00
2013-6-5,105.3,85.8,69.1,37.6,30.8,22.0,25,13,3,27.30,27.17,9,2,9,0.00
2013-6-6,112.7,88.0,68.0,43.0,29.9,21.1,19,12,5,27.25,27.11,8,2,8,0.00
2013-6-7,114.8,90.8,70.9,44.8,31.4,24.8,19,11,3,27.22,27.07,9,2,9,0.00
2013-6-8,108.4,90.6,74.7,40.0,31.7,24.8,18,11,5,27.26,27.16,10,2,10,0.00
2013-6-9,109.4,89.4,73.4,40.9,33.3,26.6,25,13,3,27.32,27.19,9,2,9,0.00
2013-6-10,114.1,91.0,72.9,44.1,34.1,26.6,23,13,3,27.32,27.18,10,2,10,0.00
2013-6-11,113.0,91.4,72.9,43.6,31.9,25.2,19,11,3,27.31,27.19,10,2,10,0.00
2013-6-12,111.2,92.6,76.1,42.3,33.0,25.3,18,12,6,27.35,27.20,10,2,10,0.00
2013-6-13,108.2,91.0,77.2,51.6,43.7,35.6,33,21,11,27.34,27.18,11,2,11,0.00
2013-6-14,108.4,91.2,78.3,55.2,49.4,38.8,40,26,14,27.29,27.14,9,2,9,0.00
2013-6-15,115.6,90.0,77.6,59.0,52.3,44.5,40,29,14,27.31,27.19,8,2,8,0.00
2013-6-16,108.7,89.9,74.3,54.4,44.6,27.1,48,25,8,27.34,27.20,8,2,8,0.00
2013-6-17,112.7,89.5,71.6,43.3,31.6,22.7,23,12,3,27.34,27.19,9,1,9,0.00
2013-6-18,110.9,88.9,71.6,41.9,28.8,17.9,18,8,1,27.28,27.14,8,2,8,0.00
2013-6-19,109.8,89.3,71.5,41.1,28.0,14.4,16,9,2,27.21,27.09,11,2,11,0.00
2013-6-20,108.2,88.2,71.3,40.0,30.5,21.8,22,11,2,27.25,27.13,11,2,11,0.00
2013-6-21,107.8,89.7,72.4,41.1,35.3,27.5,26,14,3,27.28,27.17,10,3,10,0.00
2013-6-22,107.8,95.9,80.8,39.6,31.6,24.0,15,8,3,27.28,27.14,9,2,9,0.00
2013-6-23,105.1,87.7,70.0,37.6,31.7,25.3,24,13,3,27.25,27.10,9,3,10,0.00
2013-6-24,105.5,87.2,69.8,37.9,30.6,23.6,22,13,5,27.27,27.16,10,2,10,0.00
2013-6-25,110.2,87.4,68.8,41.4,32.9,18.2,30,14,2,27.34,27.23,6,1,6,0.00
2013-6-26,109.1,88.2,70.7,40.6,29.4,19.1,19,11,5,27.42,27.30,4,1,4,0.00
2013-6-27,106.9,90.2,74.0,45.0,37.5,23.2,32,17,7,27.45,27.30,7,2,7,0.00
2013-6-30,94.3,80.5,77.6,64.9,60.4,57.3,57,51,38,27.38,27.20,13,5,13,0.06
2013-7-1,113.0,90.7,78.1,62.0,56.4,49.0,52,35,14,27.31,27.17,11,2,11,0.00
2013-7-2,108.0,88.7,72.5,61.6,56.8,51.7,68,37,18,27.46,27.22,14,3,14,0.10
2013-7-3,109.8,91.8,77.0,55.3,52.1,43.9,45,28,16,27.31,27.10,10,3,10,0.00
2013-7-4,108.5,92.9,81.5,58.9,53.9,47.3,43,29,14,27.26,27.10,8,3,8,0.00
2013-7-5,103.0,84.9,71.6,71.3,62.9,52.9,91,52,26,27.28,27.15,28,2,28,1.35
2013-7-6,113.4,87.8,72.4,67.2,62.7,52.8,79,48,18,27.23,27.08,9,2,9,0.00
2013-7-7,118.8,86.4,76.9,65.0,61.1,52.3,64,46,14,27.24,27.12,6,1,6,0.00
2013-7-8,117.2,94.0,82.4,62.2,58.8,54.6,49,33,17,27.32,27.20,10,2,10,0.01
2013-7-9,105.8,89.6,78.8,68.0,63.6,59.0,64,44,27,27.42,27.25,10,3,10,0.01
2013-7-10,112.7,83.2,73.8,71.4,65.8,63.0,82,58,23,27.39,27.25,14,2,14,0.07
2013-7-11,94.9,81.8,69.5,71.3,66.9,63.7,89,63,39,27.36,27.25,8,2,8,0.17
2013-7-12,101.0,84.4,76.7,70.7,65.8,59.6,76,56,32,27.35,27.22,8,2,8,0.12
2013-7-13,83.9,78.7,76.0,67.1,65.0,62.8,71,63,50,27.35,27.28,2,0,2,0.00
2013-7-15,112.9,94.9,77.6,65.2,61.5,58.5,62,35,19,27.26,27.12,16,2,16,0.30
2013-7-16,101.2,82.9,74.5,68.9,66.1,62.6,78,59,33,27.40,27.29,12,3,12,0.00
2013-7-17,114.3,87.3,74.2,67.6,60.3,53.8,77,45,17,27.40,27.26,11,3,11,0.00
2013-7-18,113.2,89.0,76.0,61.3,57.4,54.5,51,36,18,27.37,27.21,11,3,11,0.00
2013-7-19,105.1,87.3,77.4,63.8,60.8,58.0,55,42,24,27.32,27.18,7,2,7,0.02
2013-7-20,103.0,78.6,70.2,70.4,66.4,57.9,89,69,32,27.29,27.16,14,1,14,0.13
2013-7-21,99.9,78.7,72.9,69.8,67.1,61.9,86,70,31,27.32,27.23,7,2,7,0.00
2013-7-22,106.6,83.7,72.4,68.1,64.4,60.2,83,56,25,27.37,27.26,13,2,13,0.00
2013-7-23,104.6,88.3,74.5,64.0,60.8,58.1,68,42,25,27.37,27.22,9,2,9,0.00
2013-7-24,101.0,85.2,78.1,70.8,63.9,60.1,74,51,30,27.32,27.22,9,2,9,0.05
2013-7-25,94.7,82.0,76.7,69.6,66.4,61.2,71,60,39,27.38,27.29,11,1,11,0.00
2013-7-26,108.2,81.8,73.4,70.0,66.5,60.2,81,62,25,27.45,27.37,15,2,15,0.14
2013-7-27,82.6,81.6,80.6,63.4,62.9,62.3,55,53,52,27.27,27.26,3,1,3,0.00
2013-7-28,114.7,89.1,75.1,64.1,56.9,47.5,66,38,16,27.27,27.16,11,2,11,0.00
2013-7-29,114.7,89.6,74.0,52.5,49.0,42.7,45,27,12,27.38,27.26,8,2,8,0.00
2013-7-30,118.1,91.5,75.6,57.1,53.6,49.3,49,30,13,27.46,27.33,9,1,9,0.00
2013-7-31,110.3,91.4,81.4,58.4,55.9,50.4,44,32,17,27.42,27.30,7,1,7,0.00
2013-8-1,99.5,86.9,82.1,63.4,59.7,55.4,50,40,27,27.36,27.28,12,3,13,0.00
2013-8-2,99.4,84.5,77.0,66.3,62.1,57.6,61,48,31,27.34,27.27,12,2,12,0.00
2013-8-3,114.3,88.0,72.5,62.1,58.6,53.4,67,41,16,27.37,27.25,6,2,6,0.00
2013-8-4,106.7,88.4,81.2,61.6,58.2,55.4,48,37,20,27.39,27.27,4,2,4,0.00
2013-8-5,104.6,82.6,67.7,65.5,60.2,54.4,90,51,21,27.41,27.25,10,3,10,0.14
2013-8-6,85.0,75.5,68.0,66.9,64.3,60.1,90,70,48,27.39,27.32,9,2,9,0.03
2013-8-7,108.4,82.1,67.7,64.1,58.2,51.8,84,50,20,27.40,27.27,5,1,5,0.00
2013-8-8,118.4,87.8,70.6,56.8,47.1,34.1,59,30,11,27.34,27.21,4,1,4,0.00
2013-8-9,112.0,87.8,69.1,47.8,43.9,39.2,46,24,12,27.32,27.20,5,2,5,0.00
2013-8-10,117.0,89.5,74.2,49.1,40.8,34.4,33,20,9,27.38,27.25,4,2,4,0.00
2013-8-11,126.0,92.3,75.6,60.5,56.2,36.5,53,33,12,27.35,27.22,9,3,10,0.00
2013-8-12,101.9,81.9,73.8,61.2,56.9,42.3,56,44,14,27.30,27.20,6,2,6,0.00
2013-8-16,108.5,93.3,84.2,60.6,56.1,50.2,41,31,17,27.35,27.22,9,2,9,0.00
2013-8-17,128.9,94.1,78.5,61.5,55.3,42.4,50,31,9,27.35,27.17,16,2,16,0.00
2013-8-18,120.1,89.7,81.2,57.3,53.7,39.6,43,31,11,27.36,27.25,10,2,10,0.00
2013-8-19,121.9,91.9,78.7,58.2,53.7,46.8,46,30,11,27.34,27.20,6,1,6,0.00
2013-8-20,116.5,88.5,79.4,65.1,57.7,52.4,54,37,16,27.35,27.21,13,3,13,0.01
2013-8-21,105.8,86.3,77.0,61.7,57.7,52.8,56,40,20,27.34,27.22,8,2,8,0.00
2013-8-22,124.4,85.1,74.0,65.4,59.1,52.3,69,46,12,27.34,27.18,13,2,13,0.35
2013-8-23,118.4,84.2,70.6,63.6,58.3,51.0,70,46,16,27.31,27.13,11,2,11,0.00
2013-8-24,109.6,80.7,71.3,67.0,61.5,55.6,81,56,20,27.33,27.22,13,3,13,0.00
2013-8-25,101.9,79.5,73.3,72.0,66.8,61.8,87,68,30,27.36,27.27,8,1,8,0.07
2013-8-26,119.2,82.9,72.0,72.9,66.1,58.1,88,62,18,27.34,27.19,7,1,7,0.00
2013-8-27,121.5,88.7,68.6,64.8,58.2,49.5,82,44,12,27.27,27.14,10,2,10,0.00
2013-8-28,118.8,87.6,77.0,66.0,60.8,56.9,68,44,16,27.35,27.19,10,3,10,0.00
2013-8-29,101.2,80.4,72.9,75.1,66.5,63.5,87,64,35,27.44,27.33,8,1,8,0.07
2013-8-30,108.4,83.6,72.9,70.9,66.2,60.2,87,60,25,27.42,27.31,5,1,5,0.02
2013-8-31,107.5,86.1,71.6,67.2,62.9,54.5,75,50,24,27.36,27.22,11,2,11,0.00
2013-9-1,113.8,89.0,74.2,65.5,61.2,56.1,69,43,19,27.30,27.17,10,2,10,0.00
2013-9-2,112.9,87.2,74.3,66.0,59.2,51.9,64,41,17,27.36,27.17,7,2,7,0.00
2013-9-3,119.9,85.2,74.9,65.4,59.3,52.8,60,44,14,27.31,27.22,13,2,13,0.00
2013-9-4,123.3,89.6,72.4,61.1,53.8,45.3,62,35,11,27.33,27.21,10,2,10,0.00
2013-9-5,117.7,91.8,76.0,55.8,50.2,45.1,49,27,11,27.32,27.21,8,3,13,0.00
2013-9-6,115.6,88.4,75.4,60.3,54.6,49.6,53,34,14,27.33,27.20,8,2,8,0.00
2013-9-7,101.2,81.2,72.7,64.9,61.7,57.9,73,53,30,27.35,27.22,10,2,10,0.00
2013-9-8,89.5,77.6,71.8,67.1,63.8,60.6,83,63,41,27.26,27.16,8,2,8,0.05
2013-9-9,104.9,77.6,63.7,74.0,66.0,60.1,90,70,31,27.22,27.10,9,1,9,0.67
2013-9-10,103.5,77.1,63.5,69.2,60.9,52.6,92,62,26,27.29,27.17,7,1,7,0.01
2013-9-11,108.7,80.9,66.1,62.9,58.1,51.8,84,52,20,27.34,27.22,9,2,9,0.00
2013-9-12,114.1,84.1,68.2,62.2,56.8,48.2,69,44,17,27.27,27.11,10,2,10,0.00
2013-9-13,121.5,89.5,74.3,65.0,59.0,48.4,69,42,11,27.18,27.02,9,2,9,0.00
2013-9-14,123.8,90.8,75.8,64.3,57.1,48.2,61,37,12,27.13,27.02,9,3,9,0.00
2013-9-15,128.2,91.1,74.5,60.5,55.8,48.1,56,35,11,27.18,27.09,10,2,10,0.00
2013-9-16,121.9,92.1,77.2,60.7,56.5,48.3,51,33,11,27.23,27.11,11,3,11,0.00
2013-9-17,126.2,94.2,80.6,60.9,55.0,45.1,45,30,9,27.20,27.04,11,3,11,0.00
2013-9-18,120.2,91.5,76.0,56.3,46.2,40.2,50,24,7,27.17,27.04,6,2,6,0.00
2013-9-19,123.8,89.0,71.6,53.4,46.5,37.7,45,26,9,27.17,27.06,7,2,7,0.00
2013-9-20,119.9,86.8,70.2,56.7,47.4,35.8,46,28,11,27.22,27.12,14,2,14,0.00
2013-9-21,114.1,87.1,73.8,60.8,54.8,50.1,53,36,14,27.23,27.05,7,3,10,0.00
2013-9-22,103.0,84.0,69.5,62.7,52.4,35.4,55,36,19,27.14,27.01,12,3,12,0.00
2013-9-23,112.9,80.5,60.1,49.0,36.6,29.0,44,24,6,27.27,27.14,5,1,6,0.00
2013-9-24,120.2,83.7,62.6,49.0,35.9,23.2,38,21,6,27.32,27.16,4,1,6,0.00
2013-9-25,105.8,81.6,65.0,37.6,29.6,20.6,29,16,7,27.21,27.05,11,2,11,0.00
2013-9-26,103.3,80.9,63.9,54.6,36.8,20.3,51,23,11,27.12,26.99,16,3,16,0.00
2013-9-27,94.7,75.1,62.3,58.5,43.8,23.0,63,36,17,27.21,27.05,10,2,10,0.00
2013-9-28,109.1,76.5,55.4,42.5,33.6,23.0,37,23,10,27.27,27.14,8,1,8,0.00
2013-9-29,114.5,79.7,60.5,48.5,37.6,32.1,44,25,7,27.24,27.09,6,1,6,0.00
2013-9-30,114.8,79.7,59.6,45.0,33.6,24.9,39,22,5,27.14,26.96,7,1,7,0.00
2013-10-1,111.4,80.2,59.0,42.1,33.8,26.4,34,21,7,27.05,26.88,7,1,7,0.00
2013-10-2,112.3,80.7,60.8,50.5,39.8,35.5,43,26,9,26.90,26.88,7,1,7,0.00
2013-10-3,110.2,79.4,62.3,51.5,40.3,25.5,52,28,10,26.89,26.67,8,2,8,0.00
2013-10-4,106.6,76.9,60.8,48.2,38.0,20.8,48,28,11,26.89,26.73,9,2,9,0.00
2013-10-5,100.4,71.8,55.1,34.0,20.4,10.9,28,15,6,26.95,26.84,8,2,8,0.00
2013-10-6,113.4,76.5,52.2,43.6,23.7,10.5,25,14,3,26.90,26.75,12,2,12,0.00
2013-10-7,113.2,81.7,65.7,43.0,26.6,20.3,21,14,6,26.79,26.63,10,3,10,0.00
2013-10-8,106.0,78.5,63.2,38.2,30.4,24.3,30,19,8,26.66,26.46,9,2,9,0.00
2013-10-9,95.6,76.2,61.2,45.7,35.8,25.7,36,25,12,26.50,26.34,15,4,15,0.00
2013-10-10,77.8,65.8,54.9,49.5,44.0,37.1,58,46,30,26.53,26.35,10,3,10,0.00
2013-10-11,97.2,66.7,48.6,49.5,38.5,31.7,67,41,15,26.52,26.40,7,1,7,0.00
2013-10-12,57.2,53.6,51.8,34.3,33.2,31.7,49,46,38,26.45,26.40,4,0,4,0.00
2013-10-27,91.3,77.2,66.2,35.7,23.1,18.4,32,14,10,27.27,27.21,8,1,8,0.00
2013-10-28,86.8,69.4,56.5,38.0,31.0,23.6,37,25,12,27.32,27.24,10,2,10,0.00
2013-10-29,86.8,68.9,56.5,38.6,32.8,27.1,43,28,15,27.35,27.22,12,2,12,0.01
2013-10-30,78.3,59.0,49.7,40.6,32.8,24.3,52,38,25,27.42,27.30,10,2,10,0.00
2013-10-31,89.5,59.6,44.3,37.1,24.4,14.0,48,29,11,27.50,27.38,8,1,8,0.00
2013-11-1,91.8,62.4,43.7,30.7,21.5,16.3,34,23,10,27.53,27.39,6,1,6,0.00
2013-11-2,92.0,72.5,53.8,52.6,23.1,16.1,73,17,6,27.44,27.26,13,3,13,0.06
2013-11-3,93.1,68.5,58.3,54.7,46.8,39.3,78,50,25,27.35,27.16,8,1,8,0.06
2013-11-4,85.7,66.7,53.3,50.0,43.3,39.3,62,45,25,27.24,27.11,10,2,10,0.00
2013-11-5,83.0,62.5,53.1,48.3,41.7,36.7,66,48,26,27.50,27.24,8,1,8,0.00
2013-11-6,89.3,63.0,47.5,39.3,28.8,18.7,63,33,10,27.61,27.49,6,1,6,0.00
2013-11-7,85.9,68.6,53.1,30.5,22.8,10.2,26,19,11,27.57,27.41,15,3,15,0.00
2013-11-8,97.0,69.8,55.4,37.6,31.9,26.5,39,26,12,27.47,27.34,6,1,6,0.00
2013-11-9,94.7,68.8,53.6,39.7,34.3,29.8,42,30,13,27.49,27.39,6,1,6,0.00
2013-11-10,101.9,69.5,52.9,42.5,34.4,31.2,46,30,11,27.51,27.38,8,1,8,0.00
2013-11-11,102.6,71.8,55.1,47.0,35.4,30.5,42,29,14,27.47,27.36,7,1,7,0.00
2013-11-12,95.6,73.9,60.1,43.8,38.7,31.9,39,29,16,27.56,27.46,12,3,12,0.00
2013-11-13,83.3,69.6,62.8,44.5,41.6,38.2,46,37,25,27.55,27.37,15,5,15,0.00
2013-11-14,94.5,69.2,56.2,51.2,40.1,34.4,54,37,19,27.41,27.24,8,1,8,0.00
2013-11-15,75.1,66.8,58.7,49.8,43.7,32.8,57,44,33,27.25,27.05,10,2,10,0.00
2013-11-16,78.8,66.5,56.5,50.6,43.6,32.9,68,47,21,27.29,27.11,9,2,9,0.00
2013-11-17,82.1,65.8,53.6,48.0,43.9,41.3,65,47,29,27.43,27.28,6,1,6,0.00
2013-11-18,91.6,66.6,53.6,49.2,43.0,38.9,62,45,19,27.46,27.34,7,1,7,0.00
2013-11-19,93.4,65.2,50.4,47.4,38.0,31.9,59,40,18,27.39,27.23,7,1,7,0.00
2013-11-20,88.4,64.5,52.0,44.4,36.6,32.6,50,37,19,27.28,27.19,7,1,7,0.00
2013-11-21,75.1,64.4,53.3,50.8,41.3,33.2,72,44,29,27.33,27.23,8,1,8,0.01
2013-11-22,62.1,54.3,46.3,54.1,48.5,43.8,91,81,64,27.34,27.18,8,2,8,0.61
2013-11-23,57.2,49.5,46.1,53.5,46.3,43.7,93,89,78,27.42,27.33,10,2,10,1.17
2013-11-24,67.0,52.3,44.5,46.4,41.2,36.6,84,67,44,27.49,27.39,8,2,8,0.00
2013-11-25,71.6,49.8,39.6,48.4,38.2,34.3,83,66,39,27.56,27.46,5,1,5,0.00
2013-11-26,70.0,55.8,43.6,38.2,32.6,23.8,79,45,26,27.60,27.48,13,4,13,0.00
2013-11-27,64.4,56.5,51.5,27.9,24.2,20.8,38,29,23,27.51,27.36,15,6,15,0.00
2013-11-28,78.8,60.0,48.2,36.9,30.7,24.4,50,34,20,27.45,27.34,11,3,11,0.00
2013-11-29,84.8,61.4,48.2,46.4,38.6,33.3,63,45,24,27.53,27.41,7,1,7,0.00
2013-11-30,74.0,59.2,48.8,46.4,42.0,38.1,68,54,35,27.53,27.41,4,0,4,0.00
2013-12-1,83.5,59.6,50.6,53.1,44.1,41.3,75,59,30,27.56,27.46,5,1,5,0.00
2013-12-2,81.7,57.8,45.7,49.7,39.4,32.4,78,54,24,27.51,27.29,5,1,5,0.00
2013-12-3,79.2,60.8,47.3,41.7,34.7,26.4,57,40,17,27.30,27.11,8,1,8,0.00
2013-12-4,69.8,58.3,45.7,45.8,40.0,32.9,83,53,28,27.28,27.12,11,2,11,0.00
2013-12-5,52.4,45.0,38.7,46.5,37.0,26.3,90,74,54,27.42,27.24,6,1,6,0.62
2013-12-6,66.1,43.4,32.8,40.1,27.7,22.1,81,57,31,27.51,27.40,4,0,4,0.01
2013-12-7,66.1,45.5,32.8,38.0,27.4,23.1,77,52,26,27.42,27.30,5,1,5,0.00
2013-12-8,58.3,49.3,42.8,40.0,35.9,28.2,72,60,46,27.45,27.34,4,1,4,0.00
2013-12-9,58.9,44.3,35.5,31.0,22.2,16.3,60,43,25,27.60,27.41,6,1,6,0.00
2013-12-10,63.7,47.9,33.3,26.7,21.2,14.3,64,37,21,27.59,27.42,9,2,9,0.00
2013-12-11,78.7,57.5,41.2,43.2,31.0,22.7,50,38,22,27.52,27.44,10,2,10,0.00
2013-12-12,78.7,60.6,48.1,42.6,32.8,26.2,53,36,25,27.52,27.39,11,3,11,0.00
2013-12-13,70.6,51.2,39.6,36.9,31.5,29.2,71,49,26,27.52,27.42,5,1,5,0.00
2013-12-14,74.7,50.2,37.6,41.9,29.3,24.8,70,48,23,27.61,27.50,6,1,6,0.00
2013-12-15,81.4,53.6,38.9,33.2,26.4,23.3,58,38,16,27.61,27.50,8,1,8,0.00
2013-12-16,80.6,61.8,50.8,30.0,24.3,18.2,36,26,10,27.56,27.47,10,2,10,0.00
2013-12-17,91.6,65.9,49.0,32.4,24.5,22.3,38,23,10,27.57,27.43,8,2,8,0.00
2013-12-18,79.7,64.6,55.4,31.0,26.0,23.0,33,24,13,27.45,27.22,5,1,5,0.00
2013-12-19,72.7,59.3,46.4,36.1,26.9,20.5,50,30,16,27.24,27.07,10,2,10,0.00
2013-12-20,55.1,48.7,43.6,44.5,38.3,32.1,89,69,46,27.19,27.01,8,2,8,0.41
2013-12-21,58.7,48.0,44.1,41.1,37.9,33.7,84,69,48,27.40,27.18,10,1,10,0.03
2013-12-22,68.4,48.9,39.2,48.3,36.4,32.9,86,65,40,27.59,27.40,3,0,3,0.01
2013-12-23,72.4,52.9,40.3,38.4,31.7,24.8,75,48,23,27.65,27.56,7,1,7,0.00
2013-12-24,75.2,55.7,44.1,32.8,27.4,22.7,60,35,19,27.56,27.45,9,2,9,0.00
2013-12-25,74.5,53.6,40.1,39.4,30.3,24.6,64,44,22,27.58,27.47,9,1,9,0.00
2013-12-26,71.5,56.0,47.9,27.5,23.9,20.5,38,30,18,27.56,27.45,11,3,11,0.00
2013-12-27,74.2,56.6,45.4,27.2,21.8,18.5,38,28,15,27.55,27.44,10,3,10,0.00
2013-12-28,72.2,55.3,44.8,32.0,26.4,21.7,45,34,22,27.48,27.30,7,1,7,0.00
2013-12-29,71.3,53.3,42.5,36.0,29.1,26.6,56,41,25,27.48,27.30,7,1,7,0.00
2013-12-30,75.4,51.9,39.2,37.8,27.9,25.0,61,42,21,27.59,27.47,5,1,5,0.00
2013-12-31,77.8,56.8,42.1,26.8,24.2,20.9,51,31,15,27.57,27.42,11,2,11,0.00
2014-1-1,78.1,54.7,40.5,29.8,25.3,21.3,49,34,17,27.51,27.40,6,1,6,0.00
2014-1-2,78.5,59.7,43.2,27.7,25.0,21.6,52,30,13,27.51,27.40,11,3,11,0.00